sensor_id;sensor_type;location;lat;lon;timestamp;P1;durP1;ratioP1;P2;durP2;ratioP2
65328;SDS011;51941;52.210;5.158;2022-12-18T00:00:46;68.95;;;25.05;;
65328;SDS011;51941;52.210;5.158;2022-12-18T00:03:13;65.55;;;24.02;;
65328;SDS011;51941;52.210;5.158;2022-12-18T00:05:47;75.35;;;26.13;;
65328;SDS011;51941;52.210;5.158;2022-12-18T00:08:14;69.43;;;27.60;;
65328;SDS011;51941;52.210;5.158;2022-12-18T00:10:41;67.30;;;25.60;;
65328;SDS011;51941;52.210;5.158;2022-12-18T00:13:08;61.22;;;24.55;;
65328;SDS011;51941;52.210;5.158;2022-12-18T00:15:34;63.80;;;24.25;;
65328;SDS011;51941;52.210;5.158;2022-12-18T00:18:03;71.90;;;26.65;;
65328;SDS011;51941;52.210;5.158;2022-12-18T00:20:30;66.78;;;24.23;;
65328;SDS011;51941;52.210;5.158;2022-12-18T00:22:58;61.42;;;23.38;;
65328;SDS011;51941;52.210;5.158;2022-12-18T00:25:24;62.33;;;24.17;;
65328;SDS011;51941;52.210;5.158;2022-12-18T00:27:51;59.97;;;22.92;;
65328;SDS011;51941;52.210;5.158;2022-12-18T00:30:18;65.13;;;24.30;;
65328;SDS011;51941;52.210;5.158;2022-12-18T00:32:45;63.35;;;24.42;;
65328;SDS011;51941;52.210;5.158;2022-12-18T00:35:12;64.85;;;25.13;;
65328;SDS011;51941;52.210;5.158;2022-12-18T00:37:38;63.15;;;24.70;;
65328;SDS011;51941;52.210;5.158;2022-12-18T00:40:07;65.78;;;26.63;;
65328;SDS011;51941;52.210;5.158;2022-12-18T00:42:35;64.50;;;24.17;;
65328;SDS011;51941;52.210;5.158;2022-12-18T00:45:20;68.30;;;25.15;;
65328;SDS011;51941;52.210;5.158;2022-12-18T00:47:47;63.45;;;24.92;;
65328;SDS011;51941;52.210;5.158;2022-12-18T00:50:13;68.35;;;27.02;;
65328;SDS011;51941;52.210;5.158;2022-12-18T00:52:40;70.30;;;28.63;;
65328;SDS011;51941;52.210;5.158;2022-12-18T00:55:09;65.45;;;25.85;;
65328;SDS011;51941;52.210;5.158;2022-12-18T00:57:36;59.83;;;25.05;;
65328;SDS011;51941;52.210;5.158;2022-12-18T01:00:03;62.35;;;24.05;;
65328;SDS011;51941;52.210;5.158;2022-12-18T01:02:31;67.88;;;26.70;;
65328;SDS011;51941;52.210;5.158;2022-12-18T01:04:58;69.65;;;27.70;;
65328;SDS011;51941;52.210;5.158;2022-12-18T01:07:25;64.63;;;25.98;;
65328;SDS011;51941;52.210;5.158;2022-12-18T01:09:51;63.80;;;25.42;;
65328;SDS011;51941;52.210;5.158;2022-12-18T01:12:19;67.30;;;25.85;;
65328;SDS011;51941;52.210;5.158;2022-12-18T01:14:49;63.05;;;24.65;;
65328;SDS011;51941;52.210;5.158;2022-12-18T01:17:16;62.03;;;25.40;;
65328;SDS011;51941;52.210;5.158;2022-12-18T01:19:42;60.45;;;24.52;;
65328;SDS011;51941;52.210;5.158;2022-12-18T01:22:09;66.82;;;26.20;;
65328;SDS011;51941;52.210;5.158;2022-12-18T01:24:36;60.58;;;25.33;;
65328;SDS011;51941;52.210;5.158;2022-12-18T01:27:03;61.30;;;25.63;;
65328;SDS011;51941;52.210;5.158;2022-12-18T01:29:31;49.80;;;21.90;;
65328;SDS011;51941;52.210;5.158;2022-12-18T01:31:58;59.05;;;24.75;;
65328;SDS011;51941;52.210;5.158;2022-12-18T01:34:25;60.08;;;25.58;;
65328;SDS011;51941;52.210;5.158;2022-12-18T01:36:51;61.63;;;25.25;;
65328;SDS011;51941;52.210;5.158;2022-12-18T01:39:18;56.58;;;24.20;;
65328;SDS011;51941;52.210;5.158;2022-12-18T01:41:45;64.70;;;26.48;;
65328;SDS011;51941;52.210;5.158;2022-12-18T01:47:21;62.30;;;26.10;;
65328;SDS011;51941;52.210;5.158;2022-12-18T01:49:51;60.75;;;25.58;;
65328;SDS011;51941;52.210;5.158;2022-12-18T01:52:19;69.97;;;28.08;;
65328;SDS011;51941;52.210;5.158;2022-12-18T01:54:47;69.88;;;28.70;;
65328;SDS011;51941;52.210;5.158;2022-12-18T01:57:18;78.03;;;29.65;;
65328;SDS011;51941;52.210;5.158;2022-12-18T01:59:45;55.47;;;24.42;;
65328;SDS011;51941;52.210;5.158;2022-12-18T02:02:19;60.80;;;25.42;;
65328;SDS011;51941;52.210;5.158;2022-12-18T02:04:47;63.35;;;26.30;;
65328;SDS011;51941;52.210;5.158;2022-12-18T02:07:14;64.38;;;25.95;;
65328;SDS011;51941;52.210;5.158;2022-12-18T02:09:50;67.00;;;28.77;;
65328;SDS011;51941;52.210;5.158;2022-12-18T02:12:24;66.53;;;26.30;;
65328;SDS011;51941;52.210;5.158;2022-12-18T02:14:58;69.63;;;27.98;;
65328;SDS011;51941;52.210;5.158;2022-12-18T02:17:32;66.45;;;26.08;;
65328;SDS011;51941;52.210;5.158;2022-12-18T02:20:05;67.18;;;27.73;;
65328;SDS011;51941;52.210;5.158;2022-12-18T02:22:40;61.85;;;25.63;;
65328;SDS011;51941;52.210;5.158;2022-12-18T02:25:21;65.28;;;26.52;;
65328;SDS011;51941;52.210;5.158;2022-12-18T02:28:03;63.25;;;26.00;;
65328;SDS011;51941;52.210;5.158;2022-12-18T02:30:33;71.38;;;28.70;;
65328;SDS011;51941;52.210;5.158;2022-12-18T02:33:02;73.47;;;28.88;;
65328;SDS011;51941;52.210;5.158;2022-12-18T02:35:32;66.55;;;28.40;;
65328;SDS011;51941;52.210;5.158;2022-12-18T02:38:01;71.72;;;28.75;;
65328;SDS011;51941;52.210;5.158;2022-12-18T02:40:34;69.30;;;26.85;;
65328;SDS011;51941;52.210;5.158;2022-12-18T02:43:06;65.65;;;27.13;;
65328;SDS011;51941;52.210;5.158;2022-12-18T02:45:34;58.75;;;25.05;;
65328;SDS011;51941;52.210;5.158;2022-12-18T02:48:02;65.68;;;26.30;;
65328;SDS011;51941;52.210;5.158;2022-12-18T02:50:34;59.72;;;24.83;;
65328;SDS011;51941;52.210;5.158;2022-12-18T02:53:06;60.83;;;24.85;;
65328;SDS011;51941;52.210;5.158;2022-12-18T02:55:45;62.42;;;25.80;;
65328;SDS011;51941;52.210;5.158;2022-12-18T02:58:24;65.93;;;26.98;;
65328;SDS011;51941;52.210;5.158;2022-12-18T03:01:02;59.13;;;24.33;;
65328;SDS011;51941;52.210;5.158;2022-12-18T03:03:38;70.38;;;26.90;;
65328;SDS011;51941;52.210;5.158;2022-12-18T03:06:12;55.83;;;23.17;;
65328;SDS011;51941;52.210;5.158;2022-12-18T03:08:47;57.35;;;23.75;;
65328;SDS011;51941;52.210;5.158;2022-12-18T03:11:17;65.65;;;26.20;;
65328;SDS011;51941;52.210;5.158;2022-12-18T03:14:07;62.78;;;25.65;;
65328;SDS011;51941;52.210;5.158;2022-12-18T03:16:35;65.60;;;26.45;;
65328;SDS011;51941;52.210;5.158;2022-12-18T03:19:05;63.35;;;25.67;;
65328;SDS011;51941;52.210;5.158;2022-12-18T03:21:36;63.95;;;25.20;;
65328;SDS011;51941;52.210;5.158;2022-12-18T03:24:09;67.88;;;26.45;;
65328;SDS011;51941;52.210;5.158;2022-12-18T03:26:38;58.95;;;23.75;;
65328;SDS011;51941;52.210;5.158;2022-12-18T03:29:14;55.60;;;23.65;;
65328;SDS011;51941;52.210;5.158;2022-12-18T03:31:47;58.25;;;23.95;;
65328;SDS011;51941;52.210;5.158;2022-12-18T03:34:21;57.40;;;25.17;;
65328;SDS011;51941;52.210;5.158;2022-12-18T03:36:53;58.45;;;24.77;;
65328;SDS011;51941;52.210;5.158;2022-12-18T03:39:22;52.95;;;22.42;;
65328;SDS011;51941;52.210;5.158;2022-12-18T03:41:55;66.43;;;27.25;;
65328;SDS011;51941;52.210;5.158;2022-12-18T03:44:42;56.90;;;25.00;;
65328;SDS011;51941;52.210;5.158;2022-12-18T03:47:15;55.17;;;24.30;;
65328;SDS011;51941;52.210;5.158;2022-12-18T03:49:48;65.70;;;27.80;;
65328;SDS011;51941;52.210;5.158;2022-12-18T03:52:23;63.40;;;26.60;;
65328;SDS011;51941;52.210;5.158;2022-12-18T03:54:56;67.85;;;28.52;;
65328;SDS011;51941;52.210;5.158;2022-12-18T03:57:27;68.00;;;28.08;;
65328;SDS011;51941;52.210;5.158;2022-12-18T03:59:59;63.45;;;27.00;;
65328;SDS011;51941;52.210;5.158;2022-12-18T04:02:39;63.53;;;27.20;;
65328;SDS011;51941;52.210;5.158;2022-12-18T04:05:11;53.58;;;24.88;;
65328;SDS011;51941;52.210;5.158;2022-12-18T04:07:41;52.63;;;23.08;;
65328;SDS011;51941;52.210;5.158;2022-12-18T04:10:10;61.63;;;25.65;;
65328;SDS011;51941;52.210;5.158;2022-12-18T04:12:38;56.97;;;24.50;;
65328;SDS011;51941;52.210;5.158;2022-12-18T04:15:10;52.20;;;23.85;;
65328;SDS011;51941;52.210;5.158;2022-12-18T04:17:38;56.25;;;23.92;;
65328;SDS011;51941;52.210;5.158;2022-12-18T04:20:16;56.40;;;25.70;;
65328;SDS011;51941;52.210;5.158;2022-12-18T04:22:44;50.95;;;22.17;;
65328;SDS011;51941;52.210;5.158;2022-12-18T04:25:11;58.85;;;27.27;;
65328;SDS011;51941;52.210;5.158;2022-12-18T04:27:47;50.20;;;23.02;;
65328;SDS011;51941;52.210;5.158;2022-12-18T04:30:15;47.60;;;22.90;;
65328;SDS011;51941;52.210;5.158;2022-12-18T04:32:43;50.88;;;24.23;;
65328;SDS011;51941;52.210;5.158;2022-12-18T04:35:09;51.47;;;22.75;;
65328;SDS011;51941;52.210;5.158;2022-12-18T04:37:40;55.53;;;23.40;;
65328;SDS011;51941;52.210;5.158;2022-12-18T04:40:07;52.08;;;22.27;;
65328;SDS011;51941;52.210;5.158;2022-12-18T04:42:40;45.45;;;20.33;;
65328;SDS011;51941;52.210;5.158;2022-12-18T04:45:07;52.90;;;23.15;;
65328;SDS011;51941;52.210;5.158;2022-12-18T04:47:35;46.35;;;21.40;;
65328;SDS011;51941;52.210;5.158;2022-12-18T04:50:02;48.78;;;21.38;;
65328;SDS011;51941;52.210;5.158;2022-12-18T04:52:29;51.60;;;21.38;;
65328;SDS011;51941;52.210;5.158;2022-12-18T04:54:56;46.13;;;22.35;;
65328;SDS011;51941;52.210;5.158;2022-12-18T04:57:23;47.40;;;21.65;;
65328;SDS011;51941;52.210;5.158;2022-12-18T04:59:49;41.53;;;18.80;;
65328;SDS011;51941;52.210;5.158;2022-12-18T05:02:16;42.22;;;19.50;;
65328;SDS011;51941;52.210;5.158;2022-12-18T05:04:44;43.85;;;19.83;;
65328;SDS011;51941;52.210;5.158;2022-12-18T05:07:11;50.67;;;23.45;;
65328;SDS011;51941;52.210;5.158;2022-12-18T05:09:38;51.28;;;22.77;;
65328;SDS011;51941;52.210;5.158;2022-12-18T05:12:04;48.08;;;21.60;;
65328;SDS011;51941;52.210;5.158;2022-12-18T05:14:31;52.15;;;22.15;;
65328;SDS011;51941;52.210;5.158;2022-12-18T05:16:58;42.40;;;19.75;;
65328;SDS011;51941;52.210;5.158;2022-12-18T05:19:25;43.85;;;20.45;;
65328;SDS011;51941;52.210;5.158;2022-12-18T05:21:53;43.15;;;19.88;;
65328;SDS011;51941;52.210;5.158;2022-12-18T05:24:20;44.33;;;19.70;;
65328;SDS011;51941;52.210;5.158;2022-12-18T05:26:46;38.63;;;17.60;;
65328;SDS011;51941;52.210;5.158;2022-12-18T05:29:13;40.05;;;18.02;;
65328;SDS011;51941;52.210;5.158;2022-12-18T05:31:40;38.13;;;17.98;;
65328;SDS011;51941;52.210;5.158;2022-12-18T05:34:07;37.72;;;18.67;;
65328;SDS011;51941;52.210;5.158;2022-12-18T05:36:33;38.90;;;18.45;;
65328;SDS011;51941;52.210;5.158;2022-12-18T05:39:02;36.80;;;17.85;;
65328;SDS011;51941;52.210;5.158;2022-12-18T05:41:29;32.10;;;16.17;;
65328;SDS011;51941;52.210;5.158;2022-12-18T05:43:55;45.08;;;18.63;;
65328;SDS011;51941;52.210;5.158;2022-12-18T05:46:22;36.38;;;17.55;;
65328;SDS011;51941;52.210;5.158;2022-12-18T05:48:49;38.47;;;17.00;;
65328;SDS011;51941;52.210;5.158;2022-12-18T05:51:17;32.83;;;15.43;;
65328;SDS011;51941;52.210;5.158;2022-12-18T05:53:46;35.78;;;17.42;;
65328;SDS011;51941;52.210;5.158;2022-12-18T05:56:16;36.90;;;16.35;;
65328;SDS011;51941;52.210;5.158;2022-12-18T05:58:44;35.72;;;16.73;;
65328;SDS011;51941;52.210;5.158;2022-12-18T06:01:11;36.47;;;16.50;;
65328;SDS011;51941;52.210;5.158;2022-12-18T06:03:40;35.75;;;16.75;;
65328;SDS011;51941;52.210;5.158;2022-12-18T06:06:12;32.35;;;15.55;;
65328;SDS011;51941;52.210;5.158;2022-12-18T06:08:40;33.13;;;16.55;;
65328;SDS011;51941;52.210;5.158;2022-12-18T06:11:07;33.30;;;16.42;;
65328;SDS011;51941;52.210;5.158;2022-12-18T06:13:35;35.67;;;16.45;;
65328;SDS011;51941;52.210;5.158;2022-12-18T06:16:02;35.20;;;15.52;;
65328;SDS011;51941;52.210;5.158;2022-12-18T06:18:29;31.80;;;15.43;;
65328;SDS011;51941;52.210;5.158;2022-12-18T06:20:56;33.03;;;15.48;;
65328;SDS011;51941;52.210;5.158;2022-12-18T06:23:23;33.72;;;15.80;;
65328;SDS011;51941;52.210;5.158;2022-12-18T06:25:50;30.38;;;14.70;;
65328;SDS011;51941;52.210;5.158;2022-12-18T06:28:17;29.17;;;13.45;;
65328;SDS011;51941;52.210;5.158;2022-12-18T06:30:45;30.40;;;14.02;;
65328;SDS011;51941;52.210;5.158;2022-12-18T06:33:14;35.08;;;16.33;;
65328;SDS011;51941;52.210;5.158;2022-12-18T06:35:41;33.20;;;15.88;;
65328;SDS011;51941;52.210;5.158;2022-12-18T06:38:08;35.45;;;16.23;;
65328;SDS011;51941;52.210;5.158;2022-12-18T06:40:36;28.73;;;14.85;;
65328;SDS011;51941;52.210;5.158;2022-12-18T06:43:03;28.55;;;14.35;;
65328;SDS011;51941;52.210;5.158;2022-12-18T06:45:30;29.05;;;14.88;;
65328;SDS011;51941;52.210;5.158;2022-12-18T06:47:58;27.83;;;14.60;;
65328;SDS011;51941;52.210;5.158;2022-12-18T06:50:25;28.67;;;14.00;;
65328;SDS011;51941;52.210;5.158;2022-12-18T06:52:52;24.35;;;12.80;;
65328;SDS011;51941;52.210;5.158;2022-12-18T06:55:18;30.88;;;14.32;;
65328;SDS011;51941;52.210;5.158;2022-12-18T06:57:45;25.38;;;13.73;;
65328;SDS011;51941;52.210;5.158;2022-12-18T07:00:12;24.67;;;13.40;;
65328;SDS011;51941;52.210;5.158;2022-12-18T07:02:39;25.27;;;13.05;;
65328;SDS011;51941;52.210;5.158;2022-12-18T07:05:08;34.50;;;15.65;;
65328;SDS011;51941;52.210;5.158;2022-12-18T07:07:35;25.00;;;13.20;;
65328;SDS011;51941;52.210;5.158;2022-12-18T07:10:01;22.65;;;12.80;;
65328;SDS011;51941;52.210;5.158;2022-12-18T07:12:28;26.33;;;12.77;;
65328;SDS011;51941;52.210;5.158;2022-12-18T07:14:55;27.48;;;13.75;;
65328;SDS011;51941;52.210;5.158;2022-12-18T07:17:22;28.52;;;13.55;;
65328;SDS011;51941;52.210;5.158;2022-12-18T07:19:49;21.45;;;11.70;;
65328;SDS011;51941;52.210;5.158;2022-12-18T07:22:17;24.17;;;12.70;;
65328;SDS011;51941;52.210;5.158;2022-12-18T07:24:43;23.70;;;12.73;;
65328;SDS011;51941;52.210;5.158;2022-12-18T07:27:10;21.83;;;11.00;;
65328;SDS011;51941;52.210;5.158;2022-12-18T07:29:37;23.52;;;12.90;;
65328;SDS011;51941;52.210;5.158;2022-12-18T07:32:04;22.30;;;12.63;;
65328;SDS011;51941;52.210;5.158;2022-12-18T07:34:32;26.30;;;13.27;;
65328;SDS011;51941;52.210;5.158;2022-12-18T07:36:58;27.95;;;13.98;;
65328;SDS011;51941;52.210;5.158;2022-12-18T07:39:26;25.25;;;13.48;;
65328;SDS011;51941;52.210;5.158;2022-12-18T07:41:53;22.17;;;12.73;;
65328;SDS011;51941;52.210;5.158;2022-12-18T07:44:34;25.15;;;13.18;;
65328;SDS011;51941;52.210;5.158;2022-12-18T07:47:01;30.05;;;14.15;;
65328;SDS011;51941;52.210;5.158;2022-12-18T07:49:27;20.50;;;11.43;;
65328;SDS011;51941;52.210;5.158;2022-12-18T07:51:54;28.90;;;14.95;;
65328;SDS011;51941;52.210;5.158;2022-12-18T07:54:22;30.48;;;14.63;;
65328;SDS011;51941;52.210;5.158;2022-12-18T07:56:51;24.30;;;12.57;;
65328;SDS011;51941;52.210;5.158;2022-12-18T07:59:18;22.70;;;12.00;;
65328;SDS011;51941;52.210;5.158;2022-12-18T08:01:44;23.92;;;11.40;;
65328;SDS011;51941;52.210;5.158;2022-12-18T08:04:11;22.75;;;12.57;;
65328;SDS011;51941;52.210;5.158;2022-12-18T08:06:38;24.27;;;12.77;;
65328;SDS011;51941;52.210;5.158;2022-12-18T08:09:05;22.58;;;12.23;;
65328;SDS011;51941;52.210;5.158;2022-12-18T08:11:33;18.63;;;11.00;;
65328;SDS011;51941;52.210;5.158;2022-12-18T08:14:01;21.40;;;11.35;;
65328;SDS011;51941;52.210;5.158;2022-12-18T08:16:28;18.73;;;11.55;;
65328;SDS011;51941;52.210;5.158;2022-12-18T08:18:55;18.70;;;10.75;;
65328;SDS011;51941;52.210;5.158;2022-12-18T08:21:23;28.52;;;14.35;;
65328;SDS011;51941;52.210;5.158;2022-12-18T08:23:52;21.30;;;11.55;;
65328;SDS011;51941;52.210;5.158;2022-12-18T08:26:21;24.23;;;12.50;;
65328;SDS011;51941;52.210;5.158;2022-12-18T08:28:48;21.45;;;12.48;;
65328;SDS011;51941;52.210;5.158;2022-12-18T08:31:17;21.60;;;11.32;;
65328;SDS011;51941;52.210;5.158;2022-12-18T08:33:44;20.10;;;11.20;;
65328;SDS011;51941;52.210;5.158;2022-12-18T08:36:11;20.05;;;11.55;;
65328;SDS011;51941;52.210;5.158;2022-12-18T08:38:38;20.88;;;11.88;;
65328;SDS011;51941;52.210;5.158;2022-12-18T08:41:05;27.83;;;14.80;;
65328;SDS011;51941;52.210;5.158;2022-12-18T08:43:33;24.48;;;13.80;;
65328;SDS011;51941;52.210;5.158;2022-12-18T08:46:20;22.83;;;12.18;;
65328;SDS011;51941;52.210;5.158;2022-12-18T08:48:47;23.13;;;11.93;;
65328;SDS011;51941;52.210;5.158;2022-12-18T08:51:16;22.10;;;11.80;;
65328;SDS011;51941;52.210;5.158;2022-12-18T08:53:43;21.08;;;11.75;;
65328;SDS011;51941;52.210;5.158;2022-12-18T08:56:11;23.52;;;12.75;;
65328;SDS011;51941;52.210;5.158;2022-12-18T08:58:38;17.65;;;10.85;;
65328;SDS011;51941;52.210;5.158;2022-12-18T09:01:06;18.17;;;10.77;;
65328;SDS011;51941;52.210;5.158;2022-12-18T09:06:03;26.33;;;13.88;;
65328;SDS011;51941;52.210;5.158;2022-12-18T09:08:31;28.48;;;15.05;;
65328;SDS011;51941;52.210;5.158;2022-12-18T09:11:01;24.88;;;12.45;;
65328;SDS011;51941;52.210;5.158;2022-12-18T09:13:28;22.90;;;12.85;;
65328;SDS011;51941;52.210;5.158;2022-12-18T09:15:55;22.58;;;12.00;;
65328;SDS011;51941;52.210;5.158;2022-12-18T09:18:22;23.02;;;12.20;;
65328;SDS011;51941;52.210;5.158;2022-12-18T09:20:51;20.75;;;11.80;;
65328;SDS011;51941;52.210;5.158;2022-12-18T09:23:18;18.83;;;11.15;;
65328;SDS011;51941;52.210;5.158;2022-12-18T09:25:45;19.63;;;10.63;;
65328;SDS011;51941;52.210;5.158;2022-12-18T09:28:12;17.80;;;10.45;;
65328;SDS011;51941;52.210;5.158;2022-12-18T09:30:40;21.00;;;12.35;;
65328;SDS011;51941;52.210;5.158;2022-12-18T09:33:09;18.90;;;11.20;;
65328;SDS011;51941;52.210;5.158;2022-12-18T09:35:36;19.35;;;10.88;;
65328;SDS011;51941;52.210;5.158;2022-12-18T09:38:05;23.75;;;12.80;;
65328;SDS011;51941;52.210;5.158;2022-12-18T09:40:35;20.35;;;11.13;;
65328;SDS011;51941;52.210;5.158;2022-12-18T09:43:05;21.75;;;11.85;;
65328;SDS011;51941;52.210;5.158;2022-12-18T09:45:38;16.45;;;10.25;;
65328;SDS011;51941;52.210;5.158;2022-12-18T09:48:09;16.60;;;9.95;;
65328;SDS011;51941;52.210;5.158;2022-12-18T09:50:42;18.95;;;11.00;;
65328;SDS011;51941;52.210;5.158;2022-12-18T09:53:12;20.90;;;11.57;;
65328;SDS011;51941;52.210;5.158;2022-12-18T09:55:45;18.85;;;10.98;;
65328;SDS011;51941;52.210;5.158;2022-12-18T09:58:13;19.58;;;11.82;;
65328;SDS011;51941;52.210;5.158;2022-12-18T10:00:45;19.23;;;11.15;;
65328;SDS011;51941;52.210;5.158;2022-12-18T10:03:12;17.98;;;10.32;;
65328;SDS011;51941;52.210;5.158;2022-12-18T10:05:43;14.77;;;9.35;;
65328;SDS011;51941;52.210;5.158;2022-12-18T10:08:22;17.85;;;10.70;;
65328;SDS011;51941;52.210;5.158;2022-12-18T10:10:56;22.35;;;12.07;;
65328;SDS011;51941;52.210;5.158;2022-12-18T10:13:28;21.60;;;11.15;;
65328;SDS011;51941;52.210;5.158;2022-12-18T10:16:03;21.85;;;12.48;;
65328;SDS011;51941;52.210;5.158;2022-12-18T10:18:42;18.85;;;11.05;;
65328;SDS011;51941;52.210;5.158;2022-12-18T10:21:28;23.20;;;12.23;;
65328;SDS011;51941;52.210;5.158;2022-12-18T10:24:01;19.17;;;10.90;;
65328;SDS011;51941;52.210;5.158;2022-12-18T10:26:34;19.65;;;10.68;;
65328;SDS011;51941;52.210;5.158;2022-12-18T10:29:01;18.20;;;10.63;;
65328;SDS011;51941;52.210;5.158;2022-12-18T10:31:28;21.15;;;11.15;;
65328;SDS011;51941;52.210;5.158;2022-12-18T10:33:54;20.42;;;10.90;;
65328;SDS011;51941;52.210;5.158;2022-12-18T10:36:22;24.20;;;12.48;;
65328;SDS011;51941;52.210;5.158;2022-12-18T10:38:50;20.48;;;10.32;;
65328;SDS011;51941;52.210;5.158;2022-12-18T10:41:24;20.15;;;11.20;;
65328;SDS011;51941;52.210;5.158;2022-12-18T10:44:10;20.50;;;10.52;;
65328;SDS011;51941;52.210;5.158;2022-12-18T10:46:39;20.48;;;11.55;;
65328;SDS011;51941;52.210;5.158;2022-12-18T10:49:17;18.13;;;10.00;;
65328;SDS011;51941;52.210;5.158;2022-12-18T10:51:46;21.92;;;11.65;;
65328;SDS011;51941;52.210;5.158;2022-12-18T10:54:14;17.42;;;10.13;;
65328;SDS011;51941;52.210;5.158;2022-12-18T10:59:11;16.58;;;8.70;;
65328;SDS011;51941;52.210;5.158;2022-12-18T11:01:49;19.83;;;10.63;;
65328;SDS011;51941;52.210;5.158;2022-12-18T11:04:19;15.45;;;9.50;;
65328;SDS011;51941;52.210;5.158;2022-12-18T11:09:22;19.15;;;10.65;;
65328;SDS011;51941;52.210;5.158;2022-12-18T11:11:52;14.70;;;9.45;;
65328;SDS011;51941;52.210;5.158;2022-12-18T11:14:21;18.67;;;10.32;;
65328;SDS011;51941;52.210;5.158;2022-12-18T11:16:50;18.75;;;11.13;;
65328;SDS011;51941;52.210;5.158;2022-12-18T11:19:20;17.33;;;10.05;;
65328;SDS011;51941;52.210;5.158;2022-12-18T11:21:52;17.88;;;10.23;;
65328;SDS011;51941;52.210;5.158;2022-12-18T11:24:20;20.58;;;10.93;;
65328;SDS011;51941;52.210;5.158;2022-12-18T11:26:54;20.85;;;11.68;;
65328;SDS011;51941;52.210;5.158;2022-12-18T11:29:23;19.58;;;9.88;;
65328;SDS011;51941;52.210;5.158;2022-12-18T11:31:55;20.92;;;10.10;;
65328;SDS011;51941;52.210;5.158;2022-12-18T11:34:50;14.05;;;8.18;;
65328;SDS011;51941;52.210;5.158;2022-12-18T11:37:22;19.77;;;10.05;;
65328;SDS011;51941;52.210;5.158;2022-12-18T11:39:51;19.83;;;10.82;;
65328;SDS011;51941;52.210;5.158;2022-12-18T11:42:24;16.85;;;10.18;;
65328;SDS011;51941;52.210;5.158;2022-12-18T11:44:57;19.05;;;11.02;;
65328;SDS011;51941;52.210;5.158;2022-12-18T11:47:28;18.38;;;10.50;;
65328;SDS011;51941;52.210;5.158;2022-12-18T11:50:01;19.48;;;9.82;;
65328;SDS011;51941;52.210;5.158;2022-12-18T11:52:30;17.50;;;8.85;;
65328;SDS011;51941;52.210;5.158;2022-12-18T11:55:04;15.23;;;8.88;;
65328;SDS011;51941;52.210;5.158;2022-12-18T11:57:40;16.25;;;8.85;;
65328;SDS011;51941;52.210;5.158;2022-12-18T12:00:18;15.70;;;9.02;;
65328;SDS011;51941;52.210;5.158;2022-12-18T12:03:00;16.48;;;9.30;;
65328;SDS011;51941;52.210;5.158;2022-12-18T12:05:40;17.30;;;9.25;;
65328;SDS011;51941;52.210;5.158;2022-12-18T12:08:19;18.20;;;9.63;;
65328;SDS011;51941;52.210;5.158;2022-12-18T12:10:55;18.60;;;8.82;;
65328;SDS011;51941;52.210;5.158;2022-12-18T12:13:37;16.73;;;8.63;;
65328;SDS011;51941;52.210;5.158;2022-12-18T12:16:14;13.48;;;8.05;;
65328;SDS011;51941;52.210;5.158;2022-12-18T12:18:54;18.92;;;10.13;;
65328;SDS011;51941;52.210;5.158;2022-12-18T12:21:28;18.33;;;8.73;;
65328;SDS011;51941;52.210;5.158;2022-12-18T12:24:04;17.58;;;9.30;;
65328;SDS011;51941;52.210;5.158;2022-12-18T12:26:45;16.25;;;9.32;;
65328;SDS011;51941;52.210;5.158;2022-12-18T12:29:28;16.77;;;9.02;;
65328;SDS011;51941;52.210;5.158;2022-12-18T12:32:10;16.67;;;9.20;;
65328;SDS011;51941;52.210;5.158;2022-12-18T12:34:49;17.23;;;9.23;;
65328;SDS011;51941;52.210;5.158;2022-12-18T12:37:29;17.52;;;8.75;;
65328;SDS011;51941;52.210;5.158;2022-12-18T12:40:04;17.90;;;9.23;;
65328;SDS011;51941;52.210;5.158;2022-12-18T12:42:32;16.92;;;8.35;;
65328;SDS011;51941;52.210;5.158;2022-12-18T12:45:36;16.63;;;7.95;;
65328;SDS011;51941;52.210;5.158;2022-12-18T12:48:10;16.85;;;8.68;;
65328;SDS011;51941;52.210;5.158;2022-12-18T12:50:43;18.55;;;9.52;;
65328;SDS011;51941;52.210;5.158;2022-12-18T12:53:14;16.95;;;8.13;;
65328;SDS011;51941;52.210;5.158;2022-12-18T12:55:47;15.85;;;8.77;;
65328;SDS011;51941;52.210;5.158;2022-12-18T12:58:16;15.57;;;9.00;;
65328;SDS011;51941;52.210;5.158;2022-12-18T13:00:55;15.45;;;8.63;;
65328;SDS011;51941;52.210;5.158;2022-12-18T13:03:30;16.48;;;8.98;;
65328;SDS011;51941;52.210;5.158;2022-12-18T13:06:08;19.33;;;9.85;;
65328;SDS011;51941;52.210;5.158;2022-12-18T13:08:53;17.67;;;9.40;;
65328;SDS011;51941;52.210;5.158;2022-12-18T13:11:29;14.45;;;7.72;;
65328;SDS011;51941;52.210;5.158;2022-12-18T13:14:22;16.52;;;8.52;;
65328;SDS011;51941;52.210;5.158;2022-12-18T13:16:53;13.55;;;7.57;;
65328;SDS011;51941;52.210;5.158;2022-12-18T13:19:41;16.40;;;8.10;;
65328;SDS011;51941;52.210;5.158;2022-12-18T13:22:19;15.85;;;8.65;;
65328;SDS011;51941;52.210;5.158;2022-12-18T13:24:48;14.88;;;8.25;;
65328;SDS011;51941;52.210;5.158;2022-12-18T13:33:06;12.48;;;7.07;;
65328;SDS011;51941;52.210;5.158;2022-12-18T13:36:26;15.15;;;8.25;;
65328;SDS011;51941;52.210;5.158;2022-12-18T13:39:11;17.25;;;7.70;;
65328;SDS011;51941;52.210;5.158;2022-12-18T13:41:49;15.32;;;8.48;;
65328;SDS011;51941;52.210;5.158;2022-12-18T13:44:23;15.30;;;8.38;;
65328;SDS011;51941;52.210;5.158;2022-12-18T13:46:55;16.80;;;8.73;;
65328;SDS011;51941;52.210;5.158;2022-12-18T13:49:24;17.33;;;8.57;;
65328;SDS011;51941;52.210;5.158;2022-12-18T13:51:55;16.95;;;8.55;;
65328;SDS011;51941;52.210;5.158;2022-12-18T13:54:24;15.45;;;8.68;;
65328;SDS011;51941;52.210;5.158;2022-12-18T13:56:55;12.80;;;7.22;;
65328;SDS011;51941;52.210;5.158;2022-12-18T13:59:22;12.20;;;6.78;;
65328;SDS011;51941;52.210;5.158;2022-12-18T14:01:52;15.63;;;8.63;;
65328;SDS011;51941;52.210;5.158;2022-12-18T14:04:26;16.73;;;8.63;;
65328;SDS011;51941;52.210;5.158;2022-12-18T14:06:58;12.85;;;7.60;;
65328;SDS011;51941;52.210;5.158;2022-12-18T14:09:30;14.70;;;7.82;;
65328;SDS011;51941;52.210;5.158;2022-12-18T14:12:00;13.63;;;7.75;;
65328;SDS011;51941;52.210;5.158;2022-12-18T14:14:46;13.20;;;7.85;;
65328;SDS011;51941;52.210;5.158;2022-12-18T14:17:17;16.35;;;8.52;;
65328;SDS011;51941;52.210;5.158;2022-12-18T14:19:47;18.02;;;8.05;;
65328;SDS011;51941;52.210;5.158;2022-12-18T14:22:17;17.25;;;8.50;;
65328;SDS011;51941;52.210;5.158;2022-12-18T14:27:19;14.90;;;8.63;;
65328;SDS011;51941;52.210;5.158;2022-12-18T14:29:48;16.52;;;8.40;;
65328;SDS011;51941;52.210;5.158;2022-12-18T14:32:15;15.65;;;8.90;;
65328;SDS011;51941;52.210;5.158;2022-12-18T14:34:43;20.33;;;9.52;;
65328;SDS011;51941;52.210;5.158;2022-12-18T14:37:12;16.13;;;8.38;;
65328;SDS011;51941;52.210;5.158;2022-12-18T14:39:51;16.23;;;8.98;;
65328;SDS011;51941;52.210;5.158;2022-12-18T14:42:18;16.58;;;8.52;;
65328;SDS011;51941;52.210;5.158;2022-12-18T14:44:45;16.77;;;8.60;;
65328;SDS011;51941;52.210;5.158;2022-12-18T14:47:13;16.92;;;8.90;;
65328;SDS011;51941;52.210;5.158;2022-12-18T14:49:41;14.65;;;8.02;;
65328;SDS011;51941;52.210;5.158;2022-12-18T14:52:16;18.27;;;8.45;;
65328;SDS011;51941;52.210;5.158;2022-12-18T14:54:49;20.83;;;10.50;;
65328;SDS011;51941;52.210;5.158;2022-12-18T14:57:18;19.45;;;8.88;;
65328;SDS011;51941;52.210;5.158;2022-12-18T14:59:48;16.50;;;8.32;;
65328;SDS011;51941;52.210;5.158;2022-12-18T15:02:20;18.27;;;9.40;;